Agua Caliente, California
Current Conditions -  °F | °C
As of 6:35 PM on Sunday 23 Nov 2014 (Local Time) from KO69 Reporting Station
Scattered Clouds Scattered Clouds  
Wind Chill:   Ceiling: Unl
Heat Index:   Visibility: 10mi
Dew Point:   Wind: 0mph
Humidity: 82%   Direction: NA
Pressure: 30.31"   Gusts: NA
Location:  38.257°N, 122.459°W
Report Text: KO69 240235Z AUTO 00000KT 10SM SCT017 09/06 A3031 RMK AO1
Loading
Personal Weather Stations






























Interactive Weather Map New forecast layout! Learn more

10-Day Weather Forecast

Advertisements
Track Severe Weather on mobile